sensor_id;sensor_type;location;lat;lon;timestamp;temperature;humidity
15636;DHT22;7917;50.818;6.972;2022-07-04T00:00:25;15.40;1.00
15636;DHT22;7917;50.818;6.972;2022-07-04T00:02:52;15.30;99.90
15636;DHT22;7917;50.818;6.972;2022-07-04T00:05:21;15.20;1.00
15636;DHT22;7917;50.818;6.972;2022-07-04T00:07:49;15.10;1.00
15636;DHT22;7917;50.818;6.972;2022-07-04T00:10:18;15.10;1.00
15636;DHT22;7917;50.818;6.972;2022-07-04T00:12:46;15.00;1.00
15636;DHT22;7917;50.818;6.972;2022-07-04T00:15:14;15.00;99.90
15636;DHT22;7917;50.818;6.972;2022-07-04T00:17:42;14.90;80.90
15636;DHT22;7917;50.818;6.972;2022-07-04T00:20:10;14.90;99.90
15636;DHT22;7917;50.818;6.972;2022-07-04T00:22:39;14.90;99.90
15636;DHT22;7917;50.818;6.972;2022-07-04T00:25:07;14.90;1.00
15636;DHT22;7917;50.818;6.972;2022-07-04T00:27:35;14.90;99.90
15636;DHT22;7917;50.818;6.972;2022-07-04T00:30:04;14.80;99.90
15636;DHT22;7917;50.818;6.972;2022-07-04T00:32:31;14.80;99.90
15636;DHT22;7917;50.818;6.972;2022-07-04T00:34:59;14.80;1.00
15636;DHT22;7917;50.818;6.972;2022-07-04T00:37:26;14.70;1.00
15636;DHT22;7917;50.818;6.972;2022-07-04T00:39:55;14.70;1.00
15636;DHT22;7917;50.818;6.972;2022-07-04T00:42:23;14.70;1.00
15636;DHT22;7917;50.818;6.972;2022-07-04T00:44:50;14.60;1.00
15636;DHT22;7917;50.818;6.972;2022-07-04T00:47:17;14.60;1.00
15636;DHT22;7917;50.818;6.972;2022-07-04T00:49:45;14.60;1.00
15636;DHT22;7917;50.818;6.972;2022-07-04T00:52:13;14.60;1.00
15636;DHT22;7917;50.818;6.972;2022-07-04T00:54:41;14.60;1.00
15636;DHT22;7917;50.818;6.972;2022-07-04T00:57:10;14.60;1.00
15636;DHT22;7917;50.818;6.972;2022-07-04T00:59:37;14.50;1.00
15636;DHT22;7917;50.818;6.972;2022-07-04T01:02:05;14.50;1.00
15636;DHT22;7917;50.818;6.972;2022-07-04T01:04:34;14.40;1.00
15636;DHT22;7917;50.818;6.972;2022-07-04T01:07:02;14.30;1.00
15636;DHT22;7917;50.818;6.972;2022-07-04T01:09:30;14.20;11.40
15636;DHT22;7917;50.818;6.972;2022-07-04T01:11:57;14.20;15.50
15636;DHT22;7917;50.818;6.972;2022-07-04T01:14:26;14.20;10.50
15636;DHT22;7917;50.818;6.972;2022-07-04T01:16:53;14.20;15.40
15636;DHT22;7917;50.818;6.972;2022-07-04T01:19:21;14.10;1.00
15636;DHT22;7917;50.818;6.972;2022-07-04T01:21:50;14.00;13.00
15636;DHT22;7917;50.818;6.972;2022-07-04T01:24:18;14.00;20.40
15636;DHT22;7917;50.818;6.972;2022-07-04T01:26:45;13.90;37.40
15636;DHT22;7917;50.818;6.972;2022-07-04T01:29:12;13.90;40.50
15636;DHT22;7917;50.818;6.972;2022-07-04T01:31:40;14.00;1.00
15636;DHT22;7917;50.818;6.972;2022-07-04T01:34:07;13.80;16.40
15636;DHT22;7917;50.818;6.972;2022-07-04T01:36:35;13.90;15.90
15636;DHT22;7917;50.818;6.972;2022-07-04T01:39:03;13.90;29.00
15636;DHT22;7917;50.818;6.972;2022-07-04T01:41:33;13.90;43.80
15636;DHT22;7917;50.818;6.972;2022-07-04T01:44:01;13.80;62.60
15636;DHT22;7917;50.818;6.972;2022-07-04T01:46:28;13.70;91.10
15636;DHT22;7917;50.818;6.972;2022-07-04T01:48:56;13.70;99.70
15636;DHT22;7917;50.818;6.972;2022-07-04T01:51:23;13.60;99.90
15636;DHT22;7917;50.818;6.972;2022-07-04T01:53:50;13.50;99.90
15636;DHT22;7917;50.818;6.972;2022-07-04T01:56:19;13.50;99.90
15636;DHT22;7917;50.818;6.972;2022-07-04T01:58:46;13.50;99.90
15636;DHT22;7917;50.818;6.972;2022-07-04T02:01:14;13.50;99.90
15636;DHT22;7917;50.818;6.972;2022-07-04T02:03:55;13.50;99.90
15636;DHT22;7917;50.818;6.972;2022-07-04T02:06:23;13.50;99.90
15636;DHT22;7917;50.818;6.972;2022-07-04T02:08:51;13.50;99.90
15636;DHT22;7917;50.818;6.972;2022-07-04T02:11:38;13.40;99.90
15636;DHT22;7917;50.818;6.972;2022-07-04T02:14:22;13.30;99.90
15636;DHT22;7917;50.818;6.972;2022-07-04T02:16:50;13.20;99.90
15636;DHT22;7917;50.818;6.972;2022-07-04T02:19:18;13.10;99.90
15636;DHT22;7917;50.818;6.972;2022-07-04T02:21:46;13.00;99.90
15636;DHT22;7917;50.818;6.972;2022-07-04T02:24:14;13.00;99.90
15636;DHT22;7917;50.818;6.972;2022-07-04T02:26:43;13.00;99.90
15636;DHT22;7917;50.818;6.972;2022-07-04T02:29:10;12.90;99.90
15636;DHT22;7917;50.818;6.972;2022-07-04T02:31:38;12.90;99.90
15636;DHT22;7917;50.818;6.972;2022-07-04T02:34:05;13.00;99.90
15636;DHT22;7917;50.818;6.972;2022-07-04T02:36:33;13.00;99.90
15636;DHT22;7917;50.818;6.972;2022-07-04T02:39:00;12.90;99.90
15636;DHT22;7917;50.818;6.972;2022-07-04T02:41:28;12.90;99.90
15636;DHT22;7917;50.818;6.972;2022-07-04T02:43:59;13.00;99.90
15636;DHT22;7917;50.818;6.972;2022-07-04T02:46:27;13.00;99.90
15636;DHT22;7917;50.818;6.972;2022-07-04T02:48:55;13.00;99.90
15636;DHT22;7917;50.818;6.972;2022-07-04T02:51:23;13.00;99.90
15636;DHT22;7917;50.818;6.972;2022-07-04T02:53:50;12.90;99.90
15636;DHT22;7917;50.818;6.972;2022-07-04T02:56:18;12.80;99.90
15636;DHT22;7917;50.818;6.972;2022-07-04T02:58:46;12.80;99.90
15636;DHT22;7917;50.818;6.972;2022-07-04T03:01:17;12.80;99.90
15636;DHT22;7917;50.818;6.972;2022-07-04T03:03:47;12.80;99.90
15636;DHT22;7917;50.818;6.972;2022-07-04T03:06:15;12.70;99.90
15636;DHT22;7917;50.818;6.972;2022-07-04T03:08:43;12.60;99.90
15636;DHT22;7917;50.818;6.972;2022-07-04T03:11:11;12.50;99.90
15636;DHT22;7917;50.818;6.972;2022-07-04T03:13:41;12.50;99.90
15636;DHT22;7917;50.818;6.972;2022-07-04T03:16:10;12.50;99.90
15636;DHT22;7917;50.818;6.972;2022-07-04T03:18:42;12.40;99.90
15636;DHT22;7917;50.818;6.972;2022-07-04T03:21:11;12.40;99.90
15636;DHT22;7917;50.818;6.972;2022-07-04T03:23:41;12.30;99.90
15636;DHT22;7917;50.818;6.972;2022-07-04T03:26:23;12.20;99.90
15636;DHT22;7917;50.818;6.972;2022-07-04T03:28:51;12.20;99.90
15636;DHT22;7917;50.818;6.972;2022-07-04T03:31:18;12.20;99.90
15636;DHT22;7917;50.818;6.972;2022-07-04T03:33:47;12.20;99.90
15636;DHT22;7917;50.818;6.972;2022-07-04T03:36:15;12.10;99.90
15636;DHT22;7917;50.818;6.972;2022-07-04T03:38:43;12.10;99.90
15636;DHT22;7917;50.818;6.972;2022-07-04T03:41:10;12.10;99.90
15636;DHT22;7917;50.818;6.972;2022-07-04T03:43:38;12.10;99.90
15636;DHT22;7917;50.818;6.972;2022-07-04T03:46:05;12.20;99.90
15636;DHT22;7917;50.818;6.972;2022-07-04T03:48:33;12.10;99.90
15636;DHT22;7917;50.818;6.972;2022-07-04T03:51:03;12.10;99.90
15636;DHT22;7917;50.818;6.972;2022-07-04T03:53:31;12.10;99.90
15636;DHT22;7917;50.818;6.972;2022-07-04T03:56:00;12.10;99.90
15636;DHT22;7917;50.818;6.972;2022-07-04T03:58:28;12.00;99.90
15636;DHT22;7917;50.818;6.972;2022-07-04T04:00:55;12.10;99.90
15636;DHT22;7917;50.818;6.972;2022-07-04T04:03:24;12.10;99.90
15636;DHT22;7917;50.818;6.972;2022-07-04T04:06:10;12.10;99.90
15636;DHT22;7917;50.818;6.972;2022-07-04T04:08:38;12.20;99.90
15636;DHT22;7917;50.818;6.972;2022-07-04T04:11:05;12.20;99.90
15636;DHT22;7917;50.818;6.972;2022-07-04T04:13:32;12.20;99.90
15636;DHT22;7917;50.818;6.972;2022-07-04T04:15:59;12.30;99.90
15636;DHT22;7917;50.818;6.972;2022-07-04T04:18:28;12.30;99.90
15636;DHT22;7917;50.818;6.972;2022-07-04T04:20:55;12.40;99.90
15636;DHT22;7917;50.818;6.972;2022-07-04T04:23:24;12.40;99.90
15636;DHT22;7917;50.818;6.972;2022-07-04T04:25:51;12.50;99.90
15636;DHT22;7917;50.818;6.972;2022-07-04T04:28:19;12.50;99.90
15636;DHT22;7917;50.818;6.972;2022-07-04T04:30:46;12.60;99.90
15636;DHT22;7917;50.818;6.972;2022-07-04T04:33:14;12.70;99.90
15636;DHT22;7917;50.818;6.972;2022-07-04T04:35:41;12.80;99.90
15636;DHT22;7917;50.818;6.972;2022-07-04T04:38:09;12.80;99.90
15636;DHT22;7917;50.818;6.972;2022-07-04T04:40:37;12.90;99.90
15636;DHT22;7917;50.818;6.972;2022-07-04T04:43:05;13.00;99.90
15636;DHT22;7917;50.818;6.972;2022-07-04T04:45:32;13.00;99.90
15636;DHT22;7917;50.818;6.972;2022-07-04T04:48:00;13.10;99.90
15636;DHT22;7917;50.818;6.972;2022-07-04T04:50:28;13.20;95.40
15636;DHT22;7917;50.818;6.972;2022-07-04T04:52:55;13.40;70.10
15636;DHT22;7917;50.818;6.972;2022-07-04T04:55:23;13.50;56.10
15636;DHT22;7917;50.818;6.972;2022-07-04T04:57:52;13.50;42.10
15636;DHT22;7917;50.818;6.972;2022-07-04T05:00:19;13.60;28.00
15636;DHT22;7917;50.818;6.972;2022-07-04T05:02:47;13.60;80.10
15636;DHT22;7917;50.818;6.972;2022-07-04T05:05:14;13.70;50.40
15636;DHT22;7917;50.818;6.972;2022-07-04T05:07:42;13.80;47.70
15636;DHT22;7917;50.818;6.972;2022-07-04T05:10:10;14.00;1.00
15636;DHT22;7917;50.818;6.972;2022-07-04T05:12:37;14.10;1.00
15636;DHT22;7917;50.818;6.972;2022-07-04T05:15:07;14.20;1.00
15636;DHT22;7917;50.818;6.972;2022-07-04T05:17:34;14.40;1.00
15636;DHT22;7917;50.818;6.972;2022-07-04T05:20:04;14.60;1.00
15636;DHT22;7917;50.818;6.972;2022-07-04T05:22:33;14.70;1.00
15636;DHT22;7917;50.818;6.972;2022-07-04T05:25:00;14.90;99.90
15636;DHT22;7917;50.818;6.972;2022-07-04T05:27:28;15.00;99.90
15636;DHT22;7917;50.818;6.972;2022-07-04T05:29:56;15.20;77.60
15636;DHT22;7917;50.818;6.972;2022-07-04T05:32:26;15.30;99.90
15636;DHT22;7917;50.818;6.972;2022-07-04T05:34:54;15.50;1.00
15636;DHT22;7917;50.818;6.972;2022-07-04T05:37:22;15.60;1.00
15636;DHT22;7917;50.818;6.972;2022-07-04T05:39:50;15.80;1.00
15636;DHT22;7917;50.818;6.972;2022-07-04T05:42:21;15.90;99.90
15636;DHT22;7917;50.818;6.972;2022-07-04T05:44:49;16.00;1.00
15636;DHT22;7917;50.818;6.972;2022-07-04T05:47:17;16.10;99.90
15636;DHT22;7917;50.818;6.972;2022-07-04T05:49:49;16.30;1.00
15636;DHT22;7917;50.818;6.972;2022-07-04T05:52:17;16.40;1.00
15636;DHT22;7917;50.818;6.972;2022-07-04T05:54:44;16.50;1.00
15636;DHT22;7917;50.818;6.972;2022-07-04T05:57:12;16.60;99.90
15636;DHT22;7917;50.818;6.972;2022-07-04T05:59:40;16.80;57.70
15636;DHT22;7917;50.818;6.972;2022-07-04T06:02:07;16.90;1.00
15636;DHT22;7917;50.818;6.972;2022-07-04T06:04:35;17.00;1.00
15636;DHT22;7917;50.818;6.972;2022-07-04T06:07:04;17.10;99.90
15636;DHT22;7917;50.818;6.972;2022-07-04T06:09:31;17.30;1.00
15636;DHT22;7917;50.818;6.972;2022-07-04T06:11:59;17.40;1.00
15636;DHT22;7917;50.818;6.972;2022-07-04T06:14:26;17.50;1.00
15636;DHT22;7917;50.818;6.972;2022-07-04T06:16:53;17.90;1.00
15636;DHT22;7917;50.818;6.972;2022-07-04T06:19:21;17.90;99.90
15636;DHT22;7917;50.818;6.972;2022-07-04T06:21:48;17.80;99.90
15636;DHT22;7917;50.818;6.972;2022-07-04T06:24:17;18.00;99.90
15636;DHT22;7917;50.818;6.972;2022-07-04T06:26:45;18.10;99.90
15636;DHT22;7917;50.818;6.972;2022-07-04T06:29:13;18.40;1.00
15636;DHT22;7917;50.818;6.972;2022-07-04T06:31:40;18.50;1.00
15636;DHT22;7917;50.818;6.972;2022-07-04T06:34:08;18.50;1.00
15636;DHT22;7917;50.818;6.972;2022-07-04T06:36:53;18.60;1.00
15636;DHT22;7917;50.818;6.972;2022-07-04T06:39:22;18.70;1.00
15636;DHT22;7917;50.818;6.972;2022-07-04T06:41:49;18.70;1.00
15636;DHT22;7917;50.818;6.972;2022-07-04T06:44:17;18.90;1.00
15636;DHT22;7917;50.818;6.972;2022-07-04T06:46:44;19.10;99.90
15636;DHT22;7917;50.818;6.972;2022-07-04T06:49:12;19.30;99.90
15636;DHT22;7917;50.818;6.972;2022-07-04T06:51:39;19.30;99.90
15636;DHT22;7917;50.818;6.972;2022-07-04T06:54:07;19.30;1.00
15636;DHT22;7917;50.818;6.972;2022-07-04T06:56:35;19.40;1.00
15636;DHT22;7917;50.818;6.972;2022-07-04T06:59:03;19.50;1.00
15636;DHT22;7917;50.818;6.972;2022-07-04T07:01:31;19.70;34.80
15636;DHT22;7917;50.818;6.972;2022-07-04T07:04:00;20.00;99.90
15636;DHT22;7917;50.818;6.972;2022-07-04T07:06:33;20.20;1.00
15636;DHT22;7917;50.818;6.972;2022-07-04T07:09:00;20.50;1.00
15636;DHT22;7917;50.818;6.972;2022-07-04T07:11:28;20.80;99.90
15636;DHT22;7917;50.818;6.972;2022-07-04T07:13:57;20.90;1.00
15636;DHT22;7917;50.818;6.972;2022-07-04T07:16:24;20.90;1.00
15636;DHT22;7917;50.818;6.972;2022-07-04T07:18:52;20.90;1.00
15636;DHT22;7917;50.818;6.972;2022-07-04T07:21:21;20.80;1.00
15636;DHT22;7917;50.818;6.972;2022-07-04T07:23:49;20.80;1.00
15636;DHT22;7917;50.818;6.972;2022-07-04T07:26:16;20.90;1.00
15636;DHT22;7917;50.818;6.972;2022-07-04T07:28:44;21.10;1.00
15636;DHT22;7917;50.818;6.972;2022-07-04T07:31:15;21.10;1.00
15636;DHT22;7917;50.818;6.972;2022-07-04T07:33:42;21.20;1.00
15636;DHT22;7917;50.818;6.972;2022-07-04T07:36:09;21.30;99.90
15636;DHT22;7917;50.818;6.972;2022-07-04T07:38:37;21.20;99.90
15636;DHT22;7917;50.818;6.972;2022-07-04T07:41:08;21.30;99.90
15636;DHT22;7917;50.818;6.972;2022-07-04T07:43:38;21.40;99.90
15636;DHT22;7917;50.818;6.972;2022-07-04T07:46:09;21.50;99.90
15636;DHT22;7917;50.818;6.972;2022-07-04T07:48:41;21.60;99.90
15636;DHT22;7917;50.818;6.972;2022-07-04T07:51:11;21.70;99.90
15636;DHT22;7917;50.818;6.972;2022-07-04T07:53:40;21.70;99.90
15636;DHT22;7917;50.818;6.972;2022-07-04T07:56:08;21.60;99.90
15636;DHT22;7917;50.818;6.972;2022-07-04T07:58:36;21.80;99.90
15636;DHT22;7917;50.818;6.972;2022-07-04T08:01:05;21.80;99.90
15636;DHT22;7917;50.818;6.972;2022-07-04T08:03:33;21.60;99.90
15636;DHT22;7917;50.818;6.972;2022-07-04T08:06:35;21.50;99.90
15636;DHT22;7917;50.818;6.972;2022-07-04T08:09:06;21.50;99.90
15636;DHT22;7917;50.818;6.972;2022-07-04T08:11:35;21.50;99.90
15636;DHT22;7917;50.818;6.972;2022-07-04T08:14:05;21.40;99.90
15636;DHT22;7917;50.818;6.972;2022-07-04T08:16:36;21.70;99.90
15636;DHT22;7917;50.818;6.972;2022-07-04T08:19:04;21.50;99.90
15636;DHT22;7917;50.818;6.972;2022-07-04T08:21:40;21.70;99.90
15636;DHT22;7917;50.818;6.972;2022-07-04T08:24:08;21.80;99.90
15636;DHT22;7917;50.818;6.972;2022-07-04T08:26:36;22.10;99.90
15636;DHT22;7917;50.818;6.972;2022-07-04T08:29:06;22.10;99.90
15636;DHT22;7917;50.818;6.972;2022-07-04T08:31:34;22.10;99.90
15636;DHT22;7917;50.818;6.972;2022-07-04T08:34:01;22.20;99.90
15636;DHT22;7917;50.818;6.972;2022-07-04T08:36:29;22.20;99.90
15636;DHT22;7917;50.818;6.972;2022-07-04T08:38:57;22.20;99.90
15636;DHT22;7917;50.818;6.972;2022-07-04T08:41:40;22.20;99.90
15636;DHT22;7917;50.818;6.972;2022-07-04T08:44:10;22.10;99.90
15636;DHT22;7917;50.818;6.972;2022-07-04T08:46:43;22.20;99.90
15636;DHT22;7917;50.818;6.972;2022-07-04T08:49:21;22.20;99.90
15636;DHT22;7917;50.818;6.972;2022-07-04T08:51:52;22.60;99.90
15636;DHT22;7917;50.818;6.972;2022-07-04T08:54:30;22.80;99.90
15636;DHT22;7917;50.818;6.972;2022-07-04T08:57:15;23.00;99.90
15636;DHT22;7917;50.818;6.972;2022-07-04T09:00:01;23.00;99.90
15636;DHT22;7917;50.818;6.972;2022-07-04T09:02:37;23.20;99.90
15636;DHT22;7917;50.818;6.972;2022-07-04T09:05:09;22.90;99.90
15636;DHT22;7917;50.818;6.972;2022-07-04T09:07:36;23.00;99.90
15636;DHT22;7917;50.818;6.972;2022-07-04T09:10:09;23.20;99.90
15636;DHT22;7917;50.818;6.972;2022-07-04T09:12:38;23.40;99.90
15636;DHT22;7917;50.818;6.972;2022-07-04T09:15:16;23.30;99.90
15636;DHT22;7917;50.818;6.972;2022-07-04T09:17:54;23.10;99.90
15636;DHT22;7917;50.818;6.972;2022-07-04T09:20:24;23.00;99.90
15636;DHT22;7917;50.818;6.972;2022-07-04T09:22:53;23.10;99.90
15636;DHT22;7917;50.818;6.972;2022-07-04T09:25:24;23.40;99.90
15636;DHT22;7917;50.818;6.972;2022-07-04T09:27:53;23.20;99.90
15636;DHT22;7917;50.818;6.972;2022-07-04T09:30:24;23.40;99.90
15636;DHT22;7917;50.818;6.972;2022-07-04T09:32:54;23.30;99.90
15636;DHT22;7917;50.818;6.972;2022-07-04T09:35:27;23.50;99.90
15636;DHT22;7917;50.818;6.972;2022-07-04T09:37:56;23.70;99.90
15636;DHT22;7917;50.818;6.972;2022-07-04T09:40:28;23.60;99.90
15636;DHT22;7917;50.818;6.972;2022-07-04T09:43:01;23.50;99.90
15636;DHT22;7917;50.818;6.972;2022-07-04T09:45:54;23.50;99.90
15636;DHT22;7917;50.818;6.972;2022-07-04T09:48:24;23.40;99.90
15636;DHT22;7917;50.818;6.972;2022-07-04T09:50:52;23.10;99.90
15636;DHT22;7917;50.818;6.972;2022-07-04T09:53:26;23.30;99.90
15636;DHT22;7917;50.818;6.972;2022-07-04T09:55:56;23.40;99.90
15636;DHT22;7917;50.818;6.972;2022-07-04T09:58:24;23.70;99.90
15636;DHT22;7917;50.818;6.972;2022-07-04T10:00:59;23.70;99.90
15636;DHT22;7917;50.818;6.972;2022-07-04T10:03:30;23.60;99.90
15636;DHT22;7917;50.818;6.972;2022-07-04T10:06:04;23.60;99.90
15636;DHT22;7917;50.818;6.972;2022-07-04T10:08:32;23.80;99.90
15636;DHT22;7917;50.818;6.972;2022-07-04T10:11:06;23.80;99.90
15636;DHT22;7917;50.818;6.972;2022-07-04T10:13:39;23.80;99.90
15636;DHT22;7917;50.818;6.972;2022-07-04T10:16:21;23.60;99.90
15636;DHT22;7917;50.818;6.972;2022-07-04T10:18:58;23.70;99.90
15636;DHT22;7917;50.818;6.972;2022-07-04T10:21:30;23.90;99.90
15636;DHT22;7917;50.818;6.972;2022-07-04T10:24:13;24.00;99.90
15636;DHT22;7917;50.818;6.972;2022-07-04T10:26:49;24.40;99.90
15636;DHT22;7917;50.818;6.972;2022-07-04T10:29:26;24.20;99.90
15636;DHT22;7917;50.818;6.972;2022-07-04T10:31:55;24.10;99.90
15636;DHT22;7917;50.818;6.972;2022-07-04T10:34:23;24.00;99.90
15636;DHT22;7917;50.818;6.972;2022-07-04T10:37:04;23.90;99.90
15636;DHT22;7917;50.818;6.972;2022-07-04T10:39:33;24.10;99.90
15636;DHT22;7917;50.818;6.972;2022-07-04T10:42:02;24.10;99.90
15636;DHT22;7917;50.818;6.972;2022-07-04T10:44:33;24.00;99.90
15636;DHT22;7917;50.818;6.972;2022-07-04T10:47:04;24.00;99.90
15636;DHT22;7917;50.818;6.972;2022-07-04T10:49:35;24.20;99.90
15636;DHT22;7917;50.818;6.972;2022-07-04T10:52:11;24.40;99.90
15636;DHT22;7917;50.818;6.972;2022-07-04T10:54:42;24.90;99.90
15636;DHT22;7917;50.818;6.972;2022-07-04T10:57:15;24.70;99.90
15636;DHT22;7917;50.818;6.972;2022-07-04T11:00:05;24.60;99.90
15636;DHT22;7917;50.818;6.972;2022-07-04T11:02:43;24.50;99.90
15636;DHT22;7917;50.818;6.972;2022-07-04T11:05:11;24.50;99.90
15636;DHT22;7917;50.818;6.972;2022-07-04T11:08:00;24.80;99.90
15636;DHT22;7917;50.818;6.972;2022-07-04T11:10:40;24.30;99.90
15636;DHT22;7917;50.818;6.972;2022-07-04T11:13:17;24.70;99.90
15636;DHT22;7917;50.818;6.972;2022-07-04T11:16:46;25.00;99.90
15636;DHT22;7917;50.818;6.972;2022-07-04T11:19:17;25.20;99.90
15636;DHT22;7917;50.818;6.972;2022-07-04T11:21:45;25.30;99.90
15636;DHT22;7917;50.818;6.972;2022-07-04T11:24:14;25.40;99.90
15636;DHT22;7917;50.818;6.972;2022-07-04T11:26:42;25.50;99.90
15636;DHT22;7917;50.818;6.972;2022-07-04T11:29:13;25.60;99.90
15636;DHT22;7917;50.818;6.972;2022-07-04T11:31:42;25.40;99.90
15636;DHT22;7917;50.818;6.972;2022-07-04T11:34:14;25.50;99.90
15636;DHT22;7917;50.818;6.972;2022-07-04T11:36:47;25.50;99.90
15636;DHT22;7917;50.818;6.972;2022-07-04T11:39:15;25.70;99.90
15636;DHT22;7917;50.818;6.972;2022-07-04T11:41:48;25.50;99.90
15636;DHT22;7917;50.818;6.972;2022-07-04T11:44:39;25.40;99.90
15636;DHT22;7917;50.818;6.972;2022-07-04T11:47:32;25.80;99.90
15636;DHT22;7917;50.818;6.972;2022-07-04T11:50:00;25.90;99.90
15636;DHT22;7917;50.818;6.972;2022-07-04T11:52:29;25.50;99.90
15636;DHT22;7917;50.818;6.972;2022-07-04T11:54:58;24.70;99.90
15636;DHT22;7917;50.818;6.972;2022-07-04T11:57:32;24.40;99.90
15636;DHT22;7917;50.818;6.972;2022-07-04T12:00:05;23.80;99.90
15636;DHT22;7917;50.818;6.972;2022-07-04T12:02:38;23.50;99.90
15636;DHT22;7917;50.818;6.972;2022-07-04T12:05:09;23.50;99.90
15636;DHT22;7917;50.818;6.972;2022-07-04T12:07:47;24.10;99.90
15636;DHT22;7917;50.818;6.972;2022-07-04T12:10:23;24.30;99.90
15636;DHT22;7917;50.818;6.972;2022-07-04T12:12:55;25.00;99.90
15636;DHT22;7917;50.818;6.972;2022-07-04T12:15:35;25.50;99.90
15636;DHT22;7917;50.818;6.972;2022-07-04T12:18:26;25.90;99.90
15636;DHT22;7917;50.818;6.972;2022-07-04T12:21:11;26.30;99.90
15636;DHT22;7917;50.818;6.972;2022-07-04T12:23:39;26.60;99.90
15636;DHT22;7917;50.818;6.972;2022-07-04T12:26:07;26.70;99.90
15636;DHT22;7917;50.818;6.972;2022-07-04T12:28:36;26.80;99.90
15636;DHT22;7917;50.818;6.972;2022-07-04T12:31:05;26.80;99.90
15636;DHT22;7917;50.818;6.972;2022-07-04T12:33:34;27.20;99.90
15636;DHT22;7917;50.818;6.972;2022-07-04T12:36:06;27.20;99.90
15636;DHT22;7917;50.818;6.972;2022-07-04T12:38:36;27.50;99.90
15636;DHT22;7917;50.818;6.972;2022-07-04T12:41:06;27.50;99.90
15636;DHT22;7917;50.818;6.972;2022-07-04T12:43:48;27.50;99.90
15636;DHT22;7917;50.818;6.972;2022-07-04T12:46:30;27.40;99.90
15636;DHT22;7917;50.818;6.972;2022-07-04T12:49:03;27.60;99.90
15636;DHT22;7917;50.818;6.972;2022-07-04T12:51:35;27.60;99.90
15636;DHT22;7917;50.818;6.972;2022-07-04T12:54:12;27.70;99.90
15636;DHT22;7917;50.818;6.972;2022-07-04T12:56:46;28.00;99.90
15636;DHT22;7917;50.818;6.972;2022-07-04T12:59:17;27.90;99.90
15636;DHT22;7917;50.818;6.972;2022-07-04T13:01:48;27.80;99.90
15636;DHT22;7917;50.818;6.972;2022-07-04T13:04:15;27.50;99.90
15636;DHT22;7917;50.818;6.972;2022-07-04T13:06:43;27.20;99.90
15636;DHT22;7917;50.818;6.972;2022-07-04T13:09:12;27.50;99.90
15636;DHT22;7917;50.818;6.972;2022-07-04T13:11:43;27.80;99.90
15636;DHT22;7917;50.818;6.972;2022-07-04T13:14:35;27.20;99.90
15636;DHT22;7917;50.818;6.972;2022-07-04T13:17:07;26.40;99.90
15636;DHT22;7917;50.818;6.972;2022-07-04T13:19:35;26.00;99.90
15636;DHT22;7917;50.818;6.972;2022-07-04T13:22:03;26.10;99.90
15636;DHT22;7917;50.818;6.972;2022-07-04T13:24:35;26.60;99.90
15636;DHT22;7917;50.818;6.972;2022-07-04T13:27:03;27.10;99.90
15636;DHT22;7917;50.818;6.972;2022-07-04T13:29:32;27.20;99.90
15636;DHT22;7917;50.818;6.972;2022-07-04T13:32:06;27.40;99.90
15636;DHT22;7917;50.818;6.972;2022-07-04T13:34:35;27.40;99.90
15636;DHT22;7917;50.818;6.972;2022-07-04T13:37:03;27.30;99.90
15636;DHT22;7917;50.818;6.972;2022-07-04T13:39:31;27.50;99.90
15636;DHT22;7917;50.818;6.972;2022-07-04T13:41:59;27.40;99.90
15636;DHT22;7917;50.818;6.972;2022-07-04T13:44:27;27.20;99.90
15636;DHT22;7917;50.818;6.972;2022-07-04T13:46:55;27.30;99.90
15636;DHT22;7917;50.818;6.972;2022-07-04T13:49:26;27.40;99.90
15636;DHT22;7917;50.818;6.972;2022-07-04T13:51:54;27.20;99.90
15636;DHT22;7917;50.818;6.972;2022-07-04T13:54:22;27.40;99.90
15636;DHT22;7917;50.818;6.972;2022-07-04T13:56:50;27.30;99.90
15636;DHT22;7917;50.818;6.972;2022-07-04T13:59:18;27.30;99.90
15636;DHT22;7917;50.818;6.972;2022-07-04T14:01:45;27.20;99.90
15636;DHT22;7917;50.818;6.972;2022-07-04T14:04:15;27.00;99.90
15636;DHT22;7917;50.818;6.972;2022-07-04T14:06:56;26.80;99.90
15636;DHT22;7917;50.818;6.972;2022-07-04T14:09:27;27.10;99.90
15636;DHT22;7917;50.818;6.972;2022-07-04T14:11:55;27.00;99.90
15636;DHT22;7917;50.818;6.972;2022-07-04T14:14:25;27.00;99.90
15636;DHT22;7917;50.818;6.972;2022-07-04T14:16:53;27.10;99.90
15636;DHT22;7917;50.818;6.972;2022-07-04T14:19:21;26.80;99.90
15636;DHT22;7917;50.818;6.972;2022-07-04T14:21:49;26.50;99.90
15636;DHT22;7917;50.818;6.972;2022-07-04T14:24:19;26.70;99.90
15636;DHT22;7917;50.818;6.972;2022-07-04T14:26:46;26.70;99.90
15636;DHT22;7917;50.818;6.972;2022-07-04T14:29:14;26.80;99.90
15636;DHT22;7917;50.818;6.972;2022-07-04T14:31:41;27.20;99.90
15636;DHT22;7917;50.818;6.972;2022-07-04T14:34:09;27.50;99.90
15636;DHT22;7917;50.818;6.972;2022-07-04T14:36:45;27.60;99.90
15636;DHT22;7917;50.818;6.972;2022-07-04T14:39:14;28.00;99.90
15636;DHT22;7917;50.818;6.972;2022-07-04T14:41:47;27.70;99.90
15636;DHT22;7917;50.818;6.972;2022-07-04T14:44:16;27.20;99.90
15636;DHT22;7917;50.818;6.972;2022-07-04T14:46:45;28.00;99.90
15636;DHT22;7917;50.818;6.972;2022-07-04T14:49:14;28.30;99.90
15636;DHT22;7917;50.818;6.972;2022-07-04T14:51:42;28.00;99.90
15636;DHT22;7917;50.818;6.972;2022-07-04T14:54:10;27.20;99.90
15636;DHT22;7917;50.818;6.972;2022-07-04T14:56:39;27.20;99.90
15636;DHT22;7917;50.818;6.972;2022-07-04T14:59:09;28.10;99.90
15636;DHT22;7917;50.818;6.972;2022-07-04T15:01:36;29.20;99.90
15636;DHT22;7917;50.818;6.972;2022-07-04T15:04:04;30.00;99.90
15636;DHT22;7917;50.818;6.972;2022-07-04T15:06:32;29.70;99.90
15636;DHT22;7917;50.818;6.972;2022-07-04T15:08:59;29.60;99.90
15636;DHT22;7917;50.818;6.972;2022-07-04T15:11:29;30.10;99.90
15636;DHT22;7917;50.818;6.972;2022-07-04T15:13:57;29.90;99.90
15636;DHT22;7917;50.818;6.972;2022-07-04T15:16:26;30.00;99.90
15636;DHT22;7917;50.818;6.972;2022-07-04T15:18:54;30.50;99.90
15636;DHT22;7917;50.818;6.972;2022-07-04T15:21:22;30.40;99.90
15636;DHT22;7917;50.818;6.972;2022-07-04T15:24:07;30.50;99.90
15636;DHT22;7917;50.818;6.972;2022-07-04T15:26:42;30.60;99.90
15636;DHT22;7917;50.818;6.972;2022-07-04T15:29:10;30.40;99.90
15636;DHT22;7917;50.818;6.972;2022-07-04T15:31:39;30.50;99.90
15636;DHT22;7917;50.818;6.972;2022-07-04T15:34:06;30.90;99.90
15636;DHT22;7917;50.818;6.972;2022-07-04T15:36:34;30.30;99.90
15636;DHT22;7917;50.818;6.972;2022-07-04T15:39:06;29.60;99.90
15636;DHT22;7917;50.818;6.972;2022-07-04T15:41:34;29.80;99.90
15636;DHT22;7917;50.818;6.972;2022-07-04T15:44:02;30.60;99.90
15636;DHT22;7917;50.818;6.972;2022-07-04T15:46:30;31.60;99.90
15636;DHT22;7917;50.818;6.972;2022-07-04T15:49:01;31.80;99.90
15636;DHT22;7917;50.818;6.972;2022-07-04T15:51:29;32.00;99.90
15636;DHT22;7917;50.818;6.972;2022-07-04T15:53:57;33.30;99.90
15636;DHT22;7917;50.818;6.972;2022-07-04T15:56:24;33.00;99.90
15636;DHT22;7917;50.818;6.972;2022-07-04T15:58:53;33.40;99.90
15636;DHT22;7917;50.818;6.972;2022-07-04T16:01:20;33.20;99.90
15636;DHT22;7917;50.818;6.972;2022-07-04T16:03:48;33.30;99.90
15636;DHT22;7917;50.818;6.972;2022-07-04T16:06:17;32.90;99.90